TFM - Tactical Decision Aid
ID: Runway Winds: CIG/VIS Threshold:

KGWO - Greenwood/Leflore Ar, MS, US

Updated at: 1423 UTC 10 Jul 2020
Latest TAF at: 1120 UTC 10 Jul 2020

TAF Board

Time1353Z 10/15Z 10/16Z 10/17Z 10/18Z 10/19Z 10/20Z 10/21Z 10/22Z 10/23Z 11/00Z 11/01Z 11/02Z 11/03Z>>
Type OBS PRVL PRVL PRVL PRVL PRVL PRVL PRVL PRVL PRVL PRVL PRVL PRVL PRVL
VIS 10 >6 >6 >6 >6 >6 >6 >6 >6 >6 >6 >6 >6 >6
CIG 34 -- -- -- -- -- -- -- -- -- -- -- -- --
Cover OVC SCT SCT SCT SCT SCT SCT SCT SCT SCT SCT SCT SCT SCT
FltCat VFR VFR VFR VFR VFR VFR VFR VFR VFR VFR VFR VFR VFR VFR
WX -- -- -- -- -- -- -- -- -- -- -- -- -- --
WDir 230 320 320 320 320 320 320 320 320 320 320 320 320 320
WSpd 4 7 7 7 7 7 7 7 7 7 7 7 7 7
WGst -- -- -- -- -- -- -- -- -- -- -- -- -- --

TDA Impact Legend

  None Marginal Slight Moderate High
Visibility (sm) >5 3≤X≤5 2≤X<3 0.5≤X<2 <0.5
Ceiling (100 ft) >30 10≤X≤30 6≤X<10 2≤X<6 <2
Wind Speed (kt) <15 15≤X<25 25≤X<30 ≥30
Wind Gust (kt) <15 15≤X<25 25≤X<35 ≥35
Weather No Wx Reported VCTS -TS,-FZRA TS,FZRA +TS,+FZRA
TAF
KGWO 101120Z 1012/1112 32007KT P6SM SCT250

METAR
KGWO 101353Z AUTO 23004KT 10SM OVC034 28/26 A2999 RMK AO2 SLP154 T02780256
KGWO 101253Z AUTO 20004KT 10SM CLR 27/25 A2997 RMK AO2 SLP148 T02670250
KGWO 101153Z AUTO 00000KT 8SM CLR 24/23 A2997 RMK AO2 SLP146 70070 T02440233 10244 20228 52009

Radar Display
Forecast Discussion